Terminal Aerodrome Forecast
Issued by NWS Chicago, IL

Home | Current Version | Previous Version | Text Only | Print | Product List | Glossary Off
Versions: 1 2 3 4 5 6 7 8 9 10 11 12 13 14 15 16 17 18 19 20 21 22 23 24 25 26 27 28 29

495
FTUS43 KLOT 251458 AAA
TAFRFD
TAF AMD
KRFD 251458Z 2515/2612 17012KT P6SM BKN250
     FM251600 17015G22KT P6SM SCT040 BKN150
     FM260100 15010KT P6SM BKN050
     FM260800 16010KT P6SM VCSH SCT020 BKN050=

USA.gov is the U.S. government's official web portal to all federal, state and local government web resources and services.